sensor_id;sensor_type;location;lat;lon;timestamp;temperature;humidity
11762;DHT22;5938;47.098;15.474;2024-03-17T00:02:34;5.80;99.90
11762;DHT22;5938;47.098;15.474;2024-03-17T00:06:39;5.80;99.90
11762;DHT22;5938;47.098;15.474;2024-03-17T00:10:41;5.80;99.90
11762;DHT22;5938;47.098;15.474;2024-03-17T00:14:44;5.70;99.90
11762;DHT22;5938;47.098;15.474;2024-03-17T00:18:47;5.80;99.90
11762;DHT22;5938;47.098;15.474;2024-03-17T00:22:50;5.90;99.90
11762;DHT22;5938;47.098;15.474;2024-03-17T00:26:53;6.00;99.90
11762;DHT22;5938;47.098;15.474;2024-03-17T00:30:55;6.10;99.90
11762;DHT22;5938;47.098;15.474;2024-03-17T00:34:58;6.20;99.90
11762;DHT22;5938;47.098;15.474;2024-03-17T00:39:02;6.20;99.90
11762;DHT22;5938;47.098;15.474;2024-03-17T00:43:04;6.30;99.90
11762;DHT22;5938;47.098;15.474;2024-03-17T00:47:07;6.60;99.90
11762;DHT22;5938;47.098;15.474;2024-03-17T00:51:10;6.90;99.90
11762;DHT22;5938;47.098;15.474;2024-03-17T00:55:14;6.80;99.90
11762;DHT22;5938;47.098;15.474;2024-03-17T00:59:16;6.80;99.90
11762;DHT22;5938;47.098;15.474;2024-03-17T01:03:19;7.20;99.90
11762;DHT22;5938;47.098;15.474;2024-03-17T01:07:21;7.50;99.90
11762;DHT22;5938;47.098;15.474;2024-03-17T01:11:25;7.30;99.90
11762;DHT22;5938;47.098;15.474;2024-03-17T01:15:28;7.00;99.90
11762;DHT22;5938;47.098;15.474;2024-03-17T01:19:31;6.70;99.90
11762;DHT22;5938;47.098;15.474;2024-03-17T01:23:33;6.50;99.90
11762;DHT22;5938;47.098;15.474;2024-03-17T01:27:37;6.20;99.90
11762;DHT22;5938;47.098;15.474;2024-03-17T01:31:39;6.10;99.90
11762;DHT22;5938;47.098;15.474;2024-03-17T01:35:42;5.90;99.90
11762;DHT22;5938;47.098;15.474;2024-03-17T01:39:44;5.80;99.90
11762;DHT22;5938;47.098;15.474;2024-03-17T01:43:48;5.80;99.90
11762;DHT22;5938;47.098;15.474;2024-03-17T01:47:51;5.60;99.90
11762;DHT22;5938;47.098;15.474;2024-03-17T01:51:53;5.50;99.90
11762;DHT22;5938;47.098;15.474;2024-03-17T01:55:57;5.30;99.90
11762;DHT22;5938;47.098;15.474;2024-03-17T02:00:03;5.30;99.90
11762;DHT22;5938;47.098;15.474;2024-03-17T02:04:09;5.20;99.90
11762;DHT22;5938;47.098;15.474;2024-03-17T02:08:12;5.10;99.90
11762;DHT22;5938;47.098;15.474;2024-03-17T02:12:15;5.10;99.90
11762;DHT22;5938;47.098;15.474;2024-03-17T02:16:19;5.00;99.90
11762;DHT22;5938;47.098;15.474;2024-03-17T02:20:22;4.90;99.90
11762;DHT22;5938;47.098;15.474;2024-03-17T02:24:46;4.80;99.90
11762;DHT22;5938;47.098;15.474;2024-03-17T02:28:48;4.70;99.90
11762;DHT22;5938;47.098;15.474;2024-03-17T02:32:52;4.70;99.90
11762;DHT22;5938;47.098;15.474;2024-03-17T02:36:54;4.60;99.90
11762;DHT22;5938;47.098;15.474;2024-03-17T02:40:58;4.80;99.90
11762;DHT22;5938;47.098;15.474;2024-03-17T02:45:00;4.90;99.90
11762;DHT22;5938;47.098;15.474;2024-03-17T02:49:02;5.20;99.90
11762;DHT22;5938;47.098;15.474;2024-03-17T02:53:05;5.30;99.90
11762;DHT22;5938;47.098;15.474;2024-03-17T02:57:09;5.10;99.90
11762;DHT22;5938;47.098;15.474;2024-03-17T03:01:12;5.10;99.90
11762;DHT22;5938;47.098;15.474;2024-03-17T03:05:16;5.00;99.90
11762;DHT22;5938;47.098;15.474;2024-03-17T03:09:18;4.90;99.90
11762;DHT22;5938;47.098;15.474;2024-03-17T03:13:28;4.90;99.90
11762;DHT22;5938;47.098;15.474;2024-03-17T03:17:30;5.00;99.90
11762;DHT22;5938;47.098;15.474;2024-03-17T03:21:33;5.10;99.90
11762;DHT22;5938;47.098;15.474;2024-03-17T03:25:35;5.10;99.90
11762;DHT22;5938;47.098;15.474;2024-03-17T03:29:39;5.20;99.90
11762;DHT22;5938;47.098;15.474;2024-03-17T03:33:42;5.20;99.90
11762;DHT22;5938;47.098;15.474;2024-03-17T03:37:44;5.30;99.90
11762;DHT22;5938;47.098;15.474;2024-03-17T03:41:47;5.30;99.90
11762;DHT22;5938;47.098;15.474;2024-03-17T03:45:51;5.30;99.90
11762;DHT22;5938;47.098;15.474;2024-03-17T03:49:53;5.30;99.90
11762;DHT22;5938;47.098;15.474;2024-03-17T03:53:56;5.30;99.90
11762;DHT22;5938;47.098;15.474;2024-03-17T03:57:58;5.20;99.90
11762;DHT22;5938;47.098;15.474;2024-03-17T04:02:02;5.30;99.90
11762;DHT22;5938;47.098;15.474;2024-03-17T04:06:08;5.20;99.90
11762;DHT22;5938;47.098;15.474;2024-03-17T04:10:12;5.30;99.90
11762;DHT22;5938;47.098;15.474;2024-03-17T04:14:14;5.30;99.90
11762;DHT22;5938;47.098;15.474;2024-03-17T04:18:18;5.30;99.90
11762;DHT22;5938;47.098;15.474;2024-03-17T04:22:21;5.20;99.90
11762;DHT22;5938;47.098;15.474;2024-03-17T04:26:24;5.30;99.90
11762;DHT22;5938;47.098;15.474;2024-03-17T04:30:26;5.30;99.90
11762;DHT22;5938;47.098;15.474;2024-03-17T04:34:30;5.30;99.90
11762;DHT22;5938;47.098;15.474;2024-03-17T04:38:33;5.30;99.90
11762;DHT22;5938;47.098;15.474;2024-03-17T04:42:35;5.20;99.90
11762;DHT22;5938;47.098;15.474;2024-03-17T04:46:39;5.20;99.90
11762;DHT22;5938;47.098;15.474;2024-03-17T04:50:43;5.20;99.90
11762;DHT22;5938;47.098;15.474;2024-03-17T04:54:46;5.20;99.90
11762;DHT22;5938;47.098;15.474;2024-03-17T04:58:48;5.20;99.90
11762;DHT22;5938;47.098;15.474;2024-03-17T05:02:51;5.20;99.90
11762;DHT22;5938;47.098;15.474;2024-03-17T05:06:56;5.10;99.90
11762;DHT22;5938;47.098;15.474;2024-03-17T05:10:59;5.10;99.90
11762;DHT22;5938;47.098;15.474;2024-03-17T05:15:02;5.10;99.90
11762;DHT22;5938;47.098;15.474;2024-03-17T05:19:06;5.10;99.90
11762;DHT22;5938;47.098;15.474;2024-03-17T05:23:11;5.20;99.90
11762;DHT22;5938;47.098;15.474;2024-03-17T05:27:14;5.20;99.90
11762;DHT22;5938;47.098;15.474;2024-03-17T05:31:17;5.30;99.90
11762;DHT22;5938;47.098;15.474;2024-03-17T05:35:21;5.20;99.90
11762;DHT22;5938;47.098;15.474;2024-03-17T05:39:27;5.30;99.90
11762;DHT22;5938;47.098;15.474;2024-03-17T05:43:31;5.30;99.90
11762;DHT22;5938;47.098;15.474;2024-03-17T05:47:33;5.30;99.90
11762;DHT22;5938;47.098;15.474;2024-03-17T05:51:36;5.30;99.90
11762;DHT22;5938;47.098;15.474;2024-03-17T05:55:40;5.20;99.90
11762;DHT22;5938;47.098;15.474;2024-03-17T05:59:44;5.20;99.90
11762;DHT22;5938;47.098;15.474;2024-03-17T06:03:46;5.10;99.90
11762;DHT22;5938;47.098;15.474;2024-03-17T06:07:49;5.10;99.90
11762;DHT22;5938;47.098;15.474;2024-03-17T06:11:53;5.00;99.90
11762;DHT22;5938;47.098;15.474;2024-03-17T06:15:55;5.00;99.90
11762;DHT22;5938;47.098;15.474;2024-03-17T06:20:01;5.00;99.90
11762;DHT22;5938;47.098;15.474;2024-03-17T06:24:04;5.10;99.90
11762;DHT22;5938;47.098;15.474;2024-03-17T06:28:10;5.20;99.90
11762;DHT22;5938;47.098;15.474;2024-03-17T06:32:14;5.30;99.90
11762;DHT22;5938;47.098;15.474;2024-03-17T06:36:18;5.50;99.90
11762;DHT22;5938;47.098;15.474;2024-03-17T06:40:20;5.70;99.90
11762;DHT22;5938;47.098;15.474;2024-03-17T06:44:24;5.90;99.90
11762;DHT22;5938;47.098;15.474;2024-03-17T06:48:30;6.20;99.90
11762;DHT22;5938;47.098;15.474;2024-03-17T06:52:35;6.50;99.90
11762;DHT22;5938;47.098;15.474;2024-03-17T06:56:38;6.80;99.90
11762;DHT22;5938;47.098;15.474;2024-03-17T07:00:42;7.30;99.90
11762;DHT22;5938;47.098;15.474;2024-03-17T07:04:45;7.80;99.90
11762;DHT22;5938;47.098;15.474;2024-03-17T07:08:47;8.40;99.90
11762;DHT22;5938;47.098;15.474;2024-03-17T07:12:50;9.20;99.90
11762;DHT22;5938;47.098;15.474;2024-03-17T07:16:54;9.40;99.90
11762;DHT22;5938;47.098;15.474;2024-03-17T07:20:57;9.50;99.90
11762;DHT22;5938;47.098;15.474;2024-03-17T07:25:00;9.50;99.90
11762;DHT22;5938;47.098;15.474;2024-03-17T07:29:03;9.60;99.90
11762;DHT22;5938;47.098;15.474;2024-03-17T07:33:08;9.80;99.90
11762;DHT22;5938;47.098;15.474;2024-03-17T07:37:10;10.10;99.90
11762;DHT22;5938;47.098;15.474;2024-03-17T07:41:12;10.60;99.90
11762;DHT22;5938;47.098;15.474;2024-03-17T07:45:15;11.00;99.30
11762;DHT22;5938;47.098;15.474;2024-03-17T07:49:20;11.40;98.20
11762;DHT22;5938;47.098;15.474;2024-03-17T07:53:23;11.40;98.00
11762;DHT22;5938;47.098;15.474;2024-03-17T07:57:27;11.90;97.20
11762;DHT22;5938;47.098;15.474;2024-03-17T08:01:30;12.00;97.60
11762;DHT22;5938;47.098;15.474;2024-03-17T08:05:34;12.00;96.30
11762;DHT22;5938;47.098;15.474;2024-03-17T08:09:36;11.90;96.80
11762;DHT22;5938;47.098;15.474;2024-03-17T08:13:39;12.10;96.30
11762;DHT22;5938;47.098;15.474;2024-03-17T08:17:43;12.20;96.30
11762;DHT22;5938;47.098;15.474;2024-03-17T08:21:47;12.30;95.80
11762;DHT22;5938;47.098;15.474;2024-03-17T08:25:53;12.60;95.80
11762;DHT22;5938;47.098;15.474;2024-03-17T08:29:56;12.80;93.40
11762;DHT22;5938;47.098;15.474;2024-03-17T08:33:58;13.00;93.30
11762;DHT22;5938;47.098;15.474;2024-03-17T08:38:02;13.20;93.00
11762;DHT22;5938;47.098;15.474;2024-03-17T08:42:06;13.40;92.50
11762;DHT22;5938;47.098;15.474;2024-03-17T08:46:12;13.40;92.60
11762;DHT22;5938;47.098;15.474;2024-03-17T08:50:26;13.80;92.70
11762;DHT22;5938;47.098;15.474;2024-03-17T08:54:41;14.30;92.20
11762;DHT22;5938;47.098;15.474;2024-03-17T08:59:01;15.30;89.70
11762;DHT22;5938;47.098;15.474;2024-03-17T09:03:08;17.10;84.10
11762;DHT22;5938;47.098;15.474;2024-03-17T09:07:14;18.70;80.40
11762;DHT22;5938;47.098;15.474;2024-03-17T09:11:28;20.10;75.00
11762;DHT22;5938;47.098;15.474;2024-03-17T09:15:30;20.90;71.90
11762;DHT22;5938;47.098;15.474;2024-03-17T09:19:33;21.20;70.20
11762;DHT22;5938;47.098;15.474;2024-03-17T09:23:35;22.60;67.60
11762;DHT22;5938;47.098;15.474;2024-03-17T09:27:48;21.00;68.00
11762;DHT22;5938;47.098;15.474;2024-03-17T09:31:56;19.20;70.20
11762;DHT22;5938;47.098;15.474;2024-03-17T09:36:07;17.90;72.30
11762;DHT22;5938;47.098;15.474;2024-03-17T09:40:14;17.70;74.10
11762;DHT22;5938;47.098;15.474;2024-03-17T09:49:35;20.30;68.10
11762;DHT22;5938;47.098;15.474;2024-03-17T09:53:39;20.20;67.30
11762;DHT22;5938;47.098;15.474;2024-03-17T09:57:42;20.10;67.30
11762;DHT22;5938;47.098;15.474;2024-03-17T10:01:45;19.30;70.30
11762;DHT22;5938;47.098;15.474;2024-03-17T10:05:59;19.80;66.60
11762;DHT22;5938;47.098;15.474;2024-03-17T10:10:11;20.20;67.10
11762;DHT22;5938;47.098;15.474;2024-03-17T10:14:27;21.40;65.70
11762;DHT22;5938;47.098;15.474;2024-03-17T10:19:26;21.80;64.50
11762;DHT22;5938;47.098;15.474;2024-03-17T10:24:12;21.70;63.50
11762;DHT22;5938;47.098;15.474;2024-03-17T10:28:16;23.60;63.00
11762;DHT22;5938;47.098;15.474;2024-03-17T10:32:20;22.80;62.20
11762;DHT22;5938;47.098;15.474;2024-03-17T10:36:25;21.10;65.10
11762;DHT22;5938;47.098;15.474;2024-03-17T10:40:30;20.10;65.60
11762;DHT22;5938;47.098;15.474;2024-03-17T10:44:36;20.60;66.10
11762;DHT22;5938;47.098;15.474;2024-03-17T10:48:39;21.10;62.30
11762;DHT22;5938;47.098;15.474;2024-03-17T10:52:45;22.30;62.10
11762;DHT22;5938;47.098;15.474;2024-03-17T10:56:53;22.80;60.20
11762;DHT22;5938;47.098;15.474;2024-03-17T11:00:56;23.50;59.90
11762;DHT22;5938;47.098;15.474;2024-03-17T11:05:01;24.40;56.60
11762;DHT22;5938;47.098;15.474;2024-03-17T11:09:04;23.70;57.90
11762;DHT22;5938;47.098;15.474;2024-03-17T11:13:22;24.30;57.20
11762;DHT22;5938;47.098;15.474;2024-03-17T11:17:25;25.20;56.00
11762;DHT22;5938;47.098;15.474;2024-03-17T11:21:27;26.70;52.60
11762;DHT22;5938;47.098;15.474;2024-03-17T11:25:37;27.70;49.80
11762;DHT22;5938;47.098;15.474;2024-03-17T11:29:41;27.50;49.70
11762;DHT22;5938;47.098;15.474;2024-03-17T11:33:47;26.90;51.40
11762;DHT22;5938;47.098;15.474;2024-03-17T11:37:51;27.10;50.30
11762;DHT22;5938;47.098;15.474;2024-03-17T11:41:54;26.90;49.50
11762;DHT22;5938;47.098;15.474;2024-03-17T11:45:58;28.00;47.80
11762;DHT22;5938;47.098;15.474;2024-03-17T11:50:05;29.50;45.40
11762;DHT22;5938;47.098;15.474;2024-03-17T11:54:14;29.20;45.30
11762;DHT22;5938;47.098;15.474;2024-03-17T11:58:18;28.80;47.70
11762;DHT22;5938;47.098;15.474;2024-03-17T12:02:25;29.70;45.50
11762;DHT22;5938;47.098;15.474;2024-03-17T12:06:28;29.00;47.60
11762;DHT22;5938;47.098;15.474;2024-03-17T12:10:30;29.00;45.90
11762;DHT22;5938;47.098;15.474;2024-03-17T12:14:33;28.60;46.80
11762;DHT22;5938;47.098;15.474;2024-03-17T12:18:38;27.90;48.80
11762;DHT22;5938;47.098;15.474;2024-03-17T12:22:42;29.10;45.10
11762;DHT22;5938;47.098;15.474;2024-03-17T12:26:45;30.40;44.20
11762;DHT22;5938;47.098;15.474;2024-03-17T12:30:48;29.20;43.50
11762;DHT22;5938;47.098;15.474;2024-03-17T12:34:54;29.60;44.50
11762;DHT22;5938;47.098;15.474;2024-03-17T12:39:10;27.00;47.20
11762;DHT22;5938;47.098;15.474;2024-03-17T12:43:13;28.40;45.90
11762;DHT22;5938;47.098;15.474;2024-03-17T12:47:16;29.50;44.90
11762;DHT22;5938;47.098;15.474;2024-03-17T12:51:20;29.70;43.70
11762;DHT22;5938;47.098;15.474;2024-03-17T12:55:23;30.40;41.60
11762;DHT22;5938;47.098;15.474;2024-03-17T12:59:43;29.70;42.00
11762;DHT22;5938;47.098;15.474;2024-03-17T13:04:05;29.60;43.90
11762;DHT22;5938;47.098;15.474;2024-03-17T13:08:10;30.00;41.70
11762;DHT22;5938;47.098;15.474;2024-03-17T13:12:14;30.60;40.40
11762;DHT22;5938;47.098;15.474;2024-03-17T13:16:17;30.10;40.00
11762;DHT22;5938;47.098;15.474;2024-03-17T13:20:20;30.10;41.50
11762;DHT22;5938;47.098;15.474;2024-03-17T13:24:28;30.90;40.50
11762;DHT22;5938;47.098;15.474;2024-03-17T13:28:34;32.20;38.40
11762;DHT22;5938;47.098;15.474;2024-03-17T13:32:38;31.20;37.40
11762;DHT22;5938;47.098;15.474;2024-03-17T13:36:41;30.40;40.20
11762;DHT22;5938;47.098;15.474;2024-03-17T13:40:45;28.50;42.40
11762;DHT22;5938;47.098;15.474;2024-03-17T13:44:48;29.80;39.80
11762;DHT22;5938;47.098;15.474;2024-03-17T13:48:53;32.80;37.60
11762;DHT22;5938;47.098;15.474;2024-03-17T13:52:55;32.70;35.80
11762;DHT22;5938;47.098;15.474;2024-03-17T13:57:02;31.10;37.80
11762;DHT22;5938;47.098;15.474;2024-03-17T14:01:05;29.00;48.00
11762;DHT22;5938;47.098;15.474;2024-03-17T14:05:12;29.00;47.50
11762;DHT22;5938;47.098;15.474;2024-03-17T14:09:16;30.10;42.70
11762;DHT22;5938;47.098;15.474;2024-03-17T14:13:21;31.20;45.40
11762;DHT22;5938;47.098;15.474;2024-03-17T14:17:24;25.60;52.60
11762;DHT22;5938;47.098;15.474;2024-03-17T14:21:26;24.20;60.10
11762;DHT22;5938;47.098;15.474;2024-03-17T14:25:29;25.70;58.00
11762;DHT22;5938;47.098;15.474;2024-03-17T14:29:35;23.30;63.00
11762;DHT22;5938;47.098;15.474;2024-03-17T14:33:39;23.80;63.60
11762;DHT22;5938;47.098;15.474;2024-03-17T14:37:42;22.30;65.40
11762;DHT22;5938;47.098;15.474;2024-03-17T14:41:49;22.20;67.60
11762;DHT22;5938;47.098;15.474;2024-03-17T14:45:53;21.90;68.70
11762;DHT22;5938;47.098;15.474;2024-03-17T14:49:55;19.30;74.90
11762;DHT22;5938;47.098;15.474;2024-03-17T14:53:58;17.90;79.60
11762;DHT22;5938;47.098;15.474;2024-03-17T14:58:01;17.10;83.20
11762;DHT22;5938;47.098;15.474;2024-03-17T15:02:07;16.90;84.90
11762;DHT22;5938;47.098;15.474;2024-03-17T15:06:12;16.30;85.30
11762;DHT22;5938;47.098;15.474;2024-03-17T15:10:15;16.40;87.20
11762;DHT22;5938;47.098;15.474;2024-03-17T15:14:21;16.00;86.90
11762;DHT22;5938;47.098;15.474;2024-03-17T15:18:32;15.70;87.90
11762;DHT22;5938;47.098;15.474;2024-03-17T15:22:35;15.90;88.00
11762;DHT22;5938;47.098;15.474;2024-03-17T15:26:40;15.90;88.10
11762;DHT22;5938;47.098;15.474;2024-03-17T15:30:42;16.10;88.20
11762;DHT22;5938;47.098;15.474;2024-03-17T15:34:50;16.10;88.20
11762;DHT22;5938;47.098;15.474;2024-03-17T15:39:04;16.10;89.20
11762;DHT22;5938;47.098;15.474;2024-03-17T15:43:13;15.90;88.30
11762;DHT22;5938;47.098;15.474;2024-03-17T15:47:15;15.50;90.10
11762;DHT22;5938;47.098;15.474;2024-03-17T15:51:19;15.50;89.80
11762;DHT22;5938;47.098;15.474;2024-03-17T15:55:22;15.40;90.30
11762;DHT22;5938;47.098;15.474;2024-03-17T15:59:29;15.30;90.50
11762;DHT22;5938;47.098;15.474;2024-03-17T16:03:35;14.80;90.60
11762;DHT22;5938;47.098;15.474;2024-03-17T16:07:41;14.20;90.90
11762;DHT22;5938;47.098;15.474;2024-03-17T16:11:47;14.00;91.50
11762;DHT22;5938;47.098;15.474;2024-03-17T16:15:50;13.60;91.70
11762;DHT22;5938;47.098;15.474;2024-03-17T16:19:55;13.30;92.30
11762;DHT22;5938;47.098;15.474;2024-03-17T16:24:06;13.00;92.30
11762;DHT22;5938;47.098;15.474;2024-03-17T16:28:11;12.90;92.60
11762;DHT22;5938;47.098;15.474;2024-03-17T16:32:17;12.90;92.70
11762;DHT22;5938;47.098;15.474;2024-03-17T16:36:20;12.80;92.90
11762;DHT22;5938;47.098;15.474;2024-03-17T16:40:24;12.70;93.10
11762;DHT22;5938;47.098;15.474;2024-03-17T16:44:32;12.70;93.40
11762;DHT22;5938;47.098;15.474;2024-03-17T16:48:39;12.50;93.70
11762;DHT22;5938;47.098;15.474;2024-03-17T16:52:41;12.40;93.90
11762;DHT22;5938;47.098;15.474;2024-03-17T16:56:52;12.30;94.10
11762;DHT22;5938;47.098;15.474;2024-03-17T17:00:55;12.10;94.10
11762;DHT22;5938;47.098;15.474;2024-03-17T17:04:58;11.90;94.40
11762;DHT22;5938;47.098;15.474;2024-03-17T17:09:00;11.80;94.80
11762;DHT22;5938;47.098;15.474;2024-03-17T17:13:06;11.60;94.90
11762;DHT22;5938;47.098;15.474;2024-03-17T17:17:10;11.50;94.90
11762;DHT22;5938;47.098;15.474;2024-03-17T17:21:13;11.40;95.40
11762;DHT22;5938;47.098;15.474;2024-03-17T17:25:17;11.20;95.90
11762;DHT22;5938;47.098;15.474;2024-03-17T17:29:22;11.10;95.90
11762;DHT22;5938;47.098;15.474;2024-03-17T17:33:24;11.00;95.80
11762;DHT22;5938;47.098;15.474;2024-03-17T17:37:28;10.90;95.80
11762;DHT22;5938;47.098;15.474;2024-03-17T17:47:03;10.70;96.80
11762;DHT22;5938;47.098;15.474;2024-03-17T17:51:10;10.50;97.10
11762;DHT22;5938;47.098;15.474;2024-03-17T17:55:13;10.40;97.40
11762;DHT22;5938;47.098;15.474;2024-03-17T17:59:16;10.30;97.90
11762;DHT22;5938;47.098;15.474;2024-03-17T18:03:21;10.10;98.00
11762;DHT22;5938;47.098;15.474;2024-03-17T18:07:23;10.00;98.70
11762;DHT22;5938;47.098;15.474;2024-03-17T18:11:27;9.80;99.90
11762;DHT22;5938;47.098;15.474;2024-03-17T18:15:29;9.70;99.90
11762;DHT22;5938;47.098;15.474;2024-03-17T18:19:36;9.60;99.90
11762;DHT22;5938;47.098;15.474;2024-03-17T18:23:42;9.50;99.90
11762;DHT22;5938;47.098;15.474;2024-03-17T18:27:44;9.70;99.90
11762;DHT22;5938;47.098;15.474;2024-03-17T18:31:47;9.70;99.90
11762;DHT22;5938;47.098;15.474;2024-03-17T18:35:52;9.80;99.90
11762;DHT22;5938;47.098;15.474;2024-03-17T18:39:56;9.80;99.90
11762;DHT22;5938;47.098;15.474;2024-03-17T18:43:59;9.70;99.90
11762;DHT22;5938;47.098;15.474;2024-03-17T18:48:02;9.80;99.90
11762;DHT22;5938;47.098;15.474;2024-03-17T18:52:07;9.90;99.90
11762;DHT22;5938;47.098;15.474;2024-03-17T18:56:11;9.90;99.90
11762;DHT22;5938;47.098;15.474;2024-03-17T19:00:16;9.90;99.90
11762;DHT22;5938;47.098;15.474;2024-03-17T19:04:19;9.70;99.90
11762;DHT22;5938;47.098;15.474;2024-03-17T19:08:25;9.70;99.90
11762;DHT22;5938;47.098;15.474;2024-03-17T19:12:29;9.60;99.90
11762;DHT22;5938;47.098;15.474;2024-03-17T19:17:02;9.40;99.90
11762;DHT22;5938;47.098;15.474;2024-03-17T19:21:14;9.30;99.90
11762;DHT22;5938;47.098;15.474;2024-03-17T19:25:22;9.30;99.90
11762;DHT22;5938;47.098;15.474;2024-03-17T19:29:27;9.20;99.90
11762;DHT22;5938;47.098;15.474;2024-03-17T19:33:40;9.30;99.90
11762;DHT22;5938;47.098;15.474;2024-03-17T19:38:15;9.40;99.90
11762;DHT22;5938;47.098;15.474;2024-03-17T19:42:55;9.50;99.90
11762;DHT22;5938;47.098;15.474;2024-03-17T19:47:20;9.70;99.90
11762;DHT22;5938;47.098;15.474;2024-03-17T19:51:25;9.80;99.90
11762;DHT22;5938;47.098;15.474;2024-03-17T19:55:30;9.90;99.90
11762;DHT22;5938;47.098;15.474;2024-03-17T19:59:37;10.00;99.80
11762;DHT22;5938;47.098;15.474;2024-03-17T20:03:42;10.00;99.80
11762;DHT22;5938;47.098;15.474;2024-03-17T20:07:53;10.00;99.80
11762;DHT22;5938;47.098;15.474;2024-03-17T20:11:58;10.10;99.70
11762;DHT22;5938;47.098;15.474;2024-03-17T20:16:18;10.10;99.70
11762;DHT22;5938;47.098;15.474;2024-03-17T20:20:31;10.20;99.70
11762;DHT22;5938;47.098;15.474;2024-03-17T20:24:46;10.10;99.70
11762;DHT22;5938;47.098;15.474;2024-03-17T20:28:56;10.10;99.70
11762;DHT22;5938;47.098;15.474;2024-03-17T20:33:02;10.10;99.70
11762;DHT22;5938;47.098;15.474;2024-03-17T20:37:18;10.10;99.70
11762;DHT22;5938;47.098;15.474;2024-03-17T20:41:26;10.00;99.80
11762;DHT22;5938;47.098;15.474;2024-03-17T20:45:33;9.90;99.90
11762;DHT22;5938;47.098;15.474;2024-03-17T20:49:58;9.70;99.90
11762;DHT22;5938;47.098;15.474;2024-03-17T20:54:11;9.60;99.90
11762;DHT22;5938;47.098;15.474;2024-03-17T20:58:25;9.50;99.90
11762;DHT22;5938;47.098;15.474;2024-03-17T21:02:28;9.60;99.90
11762;DHT22;5938;47.098;15.474;2024-03-17T21:06:38;9.50;99.90
11762;DHT22;5938;47.098;15.474;2024-03-17T21:11:01;9.50;99.90
11762;DHT22;5938;47.098;15.474;2024-03-17T21:15:13;9.40;99.90
11762;DHT22;5938;47.098;15.474;2024-03-17T21:19:18;9.40;99.90
11762;DHT22;5938;47.098;15.474;2024-03-17T21:23:31;9.40;99.90
11762;DHT22;5938;47.098;15.474;2024-03-17T21:27:36;9.40;99.90
11762;DHT22;5938;47.098;15.474;2024-03-17T21:31:46;9.20;99.90
11762;DHT22;5938;47.098;15.474;2024-03-17T21:35:54;9.00;99.90
11762;DHT22;5938;47.098;15.474;2024-03-17T21:40:02;8.70;99.90
11762;DHT22;5938;47.098;15.474;2024-03-17T21:44:08;8.40;99.90
11762;DHT22;5938;47.098;15.474;2024-03-17T21:48:11;8.10;99.90
11762;DHT22;5938;47.098;15.474;2024-03-17T21:52:15;7.90;99.90
11762;DHT22;5938;47.098;15.474;2024-03-17T21:56:29;7.80;99.90
11762;DHT22;5938;47.098;15.474;2024-03-17T22:00:34;7.70;99.90
11762;DHT22;5938;47.098;15.474;2024-03-17T22:04:37;7.50;99.90
11762;DHT22;5938;47.098;15.474;2024-03-17T22:08:39;7.50;99.90
11762;DHT22;5938;47.098;15.474;2024-03-17T22:12:45;7.30;99.90
11762;DHT22;5938;47.098;15.474;2024-03-17T22:16:48;7.30;99.90
11762;DHT22;5938;47.098;15.474;2024-03-17T22:20:53;7.20;99.90
11762;DHT22;5938;47.098;15.474;2024-03-17T22:24:56;7.30;99.90
11762;DHT22;5938;47.098;15.474;2024-03-17T22:28:59;7.30;99.90
11762;DHT22;5938;47.098;15.474;2024-03-17T22:33:02;7.20;99.90
11762;DHT22;5938;47.098;15.474;2024-03-17T22:37:05;7.30;99.90
11762;DHT22;5938;47.098;15.474;2024-03-17T22:41:10;7.20;99.90
11762;DHT22;5938;47.098;15.474;2024-03-17T22:45:16;7.20;99.90
11762;DHT22;5938;47.098;15.474;2024-03-17T22:49:19;7.20;99.90
11762;DHT22;5938;47.098;15.474;2024-03-17T22:53:21;7.20;99.90
11762;DHT22;5938;47.098;15.474;2024-03-17T22:57:24;7.20;99.90
11762;DHT22;5938;47.098;15.474;2024-03-17T23:01:27;7.20;99.90
11762;DHT22;5938;47.098;15.474;2024-03-17T23:05:33;7.30;99.90
11762;DHT22;5938;47.098;15.474;2024-03-17T23:09:36;7.30;99.90
11762;DHT22;5938;47.098;15.474;2024-03-17T23:13:38;7.40;99.90
11762;DHT22;5938;47.098;15.474;2024-03-17T23:17:42;7.50;99.90
11762;DHT22;5938;47.098;15.474;2024-03-17T23:21:45;7.60;99.90
11762;DHT22;5938;47.098;15.474;2024-03-17T23:25:48;7.60;99.90
11762;DHT22;5938;47.098;15.474;2024-03-17T23:29:50;7.70;99.90
11762;DHT22;5938;47.098;15.474;2024-03-17T23:33:54;7.80;99.90
11762;DHT22;5938;47.098;15.474;2024-03-17T23:38:01;7.90;99.90
11762;DHT22;5938;47.098;15.474;2024-03-17T23:42:05;7.90;99.90
11762;DHT22;5938;47.098;15.474;2024-03-17T23:46:07;7.90;99.90
11762;DHT22;5938;47.098;15.474;2024-03-17T23:50:12;7.90;99.90
11762;DHT22;5938;47.098;15.474;2024-03-17T23:54:15;7.90;99.90
11762;DHT22;5938;47.098;15.474;2024-03-17T23:58:17;7.90;99.90
